Time;durP1;ratioP1;P1;durP2;ratioP2;P2;SDS_P1;SDS_P2;PMS_P1;PMS_P2;Temp;Humidity;BMP_temperature;BMP_pressure;BME280_temperature;BME280_humidity;BME280_pressure;Samples;Min_cycle;Max_cycle;Signal;HPM_P1;HPM_P2
2022/11/20 00:01:08;;;;;;;20.45;7.25;;;3.20;99.90;;;;;;4762760;30;20118;-76
2022/11/20 00:03:36;;;;;;;24.13;7.90;;;3.10;99.90;;;;;;4761804;30;20493;-76
2022/11/20 00:06:05;;;;;;;17.33;5.88;;;3.10;99.90;;;;;;4759864;30;20452;-76
2022/11/20 00:08:33;;;;;;;18.55;6.35;;;3.00;99.90;;;;;;4766061;30;20130;-76
2022/11/20 00:11:08;;;;;;;12.95;5.50;;;3.10;99.90;;;;;;4766211;30;20052;-75
2022/11/20 00:13:41;;;;;;;19.98;6.38;;;3.00;99.90;;;;;;4762828;30;20051;-76
2022/11/20 00:16:09;;;;;;;15.98;5.45;;;3.10;99.90;;;;;;4747787;30;20075;-76
2022/11/20 00:18:37;;;;;;;21.80;6.82;;;3.00;99.90;;;;;;4753832;30;20540;-76
2022/11/20 00:21:06;;;;;;;18.70;7.57;;;3.90;99.90;;;;;;4734890;30;20125;-76
2022/11/20 00:23:34;;;;;;;17.60;6.25;;;3.10;99.90;;;;;;4752521;30;20059;-76
2022/11/20 00:26:06;;;;;;;21.17;6.90;;;3.10;99.90;;;;;;4750655;30;20119;-75
2022/11/20 00:28:33;;;;;;;18.73;6.80;;;3.10;99.90;;;;;;4764569;30;20042;-75
2022/11/20 00:31:05;;;;;;;24.30;9.35;;;3.10;99.90;;;;;;4764807;30;20449;-75
2022/11/20 00:33:33;;;;;;;18.80;7.32;;;3.10;99.90;;;;;;4752823;30;20613;-75
2022/11/20 00:36:08;;;;;;;20.67;7.18;;;3.10;99.90;;;;;;4754108;30;20082;-76
2022/11/20 00:38:35;;;;;;;21.40;7.28;;;3.00;99.90;;;;;;4745761;30;20082;-76
2022/11/20 00:41:05;;;;;;;18.70;6.60;;;3.70;99.90;;;;;;4746614;30;20145;-76
2022/11/20 00:43:33;;;;;;;18.92;6.65;;;3.10;99.90;;;;;;4748623;30;20052;-76
2022/11/20 00:46:02;;;;;;;21.48;7.32;;;3.30;99.90;;;;;;4761273;30;20044;-76
2022/11/20 00:48:29;;;;;;;18.13;6.55;;;3.10;99.90;;;;;;4747860;30;20049;-76
2022/11/20 00:50:57;;;;;;;17.58;6.38;;;3.00;99.90;;;;;;4753943;30;20109;-76
2022/11/20 00:53:24;;;;;;;19.70;6.35;;;3.00;99.90;;;;;;4762238;30;20496;-76
2022/11/20 00:56:05;;;;;;;20.33;7.20;;;3.00;99.90;;;;;;4767053;30;20546;-76
2022/11/20 00:58:34;;;;;;;17.95;6.65;;;3.00;99.90;;;;;;4747016;30;20056;-76
2022/11/20 01:01:09;;;;;;;20.25;6.07;;;2.90;99.90;;;;;;4741805;30;20597;-76
2022/11/20 01:03:43;;;;;;;14.52;5.68;;;2.90;99.90;;;;;;4750123;30;20141;-75
2022/11/20 01:06:16;;;;;;;18.10;6.28;;;2.90;99.90;;;;;;4733539;30;20149;-75
2022/11/20 01:08:43;;;;;;;17.77;5.82;;;3.40;99.90;;;;;;4737619;30;20103;-76
2022/11/20 01:11:16;;;;;;;17.75;5.88;;;3.00;99.90;;;;;;4740959;30;20517;-76
2022/11/20 01:13:44;;;;;;;17.30;6.00;;;3.00;99.90;;;;;;4724133;30;20103;-76
2022/11/20 01:16:24;;;;;;;16.23;5.82;;;3.00;99.90;;;;;;4727686;30;20061;-76
2022/11/20 01:18:53;;;;;;;17.42;5.68;;;3.00;99.90;;;;;;4721697;30;20072;-75
2022/11/20 01:21:23;;;;;;;21.55;6.25;;;3.00;99.90;;;;;;4724352;30;20545;-76
2022/11/20 01:23:51;;;;;;;17.77;6.40;;;3.00;99.90;;;;;;4737484;30;20060;-76
2022/11/20 01:26:21;;;;;;;18.55;7.35;;;3.00;99.90;;;;;;4742959;30;20485;-76
2022/11/20 01:28:49;;;;;;;18.15;6.88;;;3.00;99.90;;;;;;4740044;30;20052;-76
2022/11/20 01:31:21;;;;;;;21.40;6.70;;;2.80;99.90;;;;;;4754420;30;20063;-76
2022/11/20 01:33:50;;;;;;;21.13;7.57;;;3.00;99.90;;;;;;4747860;30;20075;-76
2022/11/20 01:36:18;;;;;;;20.10;7.60;;;3.20;99.90;;;;;;4748460;30;20048;-76
2022/11/20 01:38:46;;;;;;;21.77;7.25;;;2.90;99.90;;;;;;4759471;30;20052;-76
2022/11/20 01:43:20;;;;;;;18.73;6.13;;;2.70;99.90;;;;;;4760696;30;20554;-76
2022/11/20 01:44:03;;;;;;;16.35;5.97;;;2.80;99.90;;;;;;4757377;30;20071;-76
2022/11/20 01:46:33;;;;;;;23.38;7.30;;;2.80;99.90;;;;;;4748430;30;20054;-76
2022/11/20 01:49:19;;;;;;;20.52;7.13;;;2.70;99.90;;;;;;4766768;30;20047;-76
2022/11/20 01:52:01;;;;;;;17.38;6.75;;;2.70;99.90;;;;;;4756780;30;20834;-76
2022/11/20 01:54:39;;;;;;;23.77;7.75;;;2.80;99.90;;;;;;4763305;30;20882;-76
2022/11/20 01:57:10;;;;;;;22.05;8.30;;;2.60;99.90;;;;;;4746178;30;20051;-76
2022/11/20 01:59:47;;;;;;;23.98;7.53;;;2.80;99.90;;;;;;4748737;30;20086;-76
2022/11/20 02:02:20;;;;;;;21.38;7.32;;;2.70;99.90;;;;;;4752064;30;20047;-76
2022/11/20 02:04:49;;;;;;;24.23;7.57;;;2.70;99.90;;;;;;4749560;30;20059;-76
2022/11/20 02:07:17;;;;;;;27.98;8.85;;;2.70;99.90;;;;;;4755325;30;20492;-76
2022/11/20 02:09:44;;;;;;;23.60;7.57;;;2.70;99.90;;;;;;4744560;30;20062;-76
2022/11/20 02:13:42;;;;;;;28.95;8.20;;;3.00;99.90;;;;;;4748511;30;20044;-76
2022/11/20 02:14:58;;;;;;;21.55;7.88;;;2.60;99.90;;;;;;4749581;30;20455;-76
2022/11/20 02:17:25;;;;;;;22.67;7.90;;;2.80;99.90;;;;;;4762782;30;20051;-76
2022/11/20 02:19:53;;;;;;;29.55;10.60;;;3.00;99.90;;;;;;4759068;30;20432;-76
2022/11/20 02:22:48;;;;;;;31.92;10.23;;;3.30;99.90;;;;;;4748529;30;20036;-77
2022/11/20 02:25:15;;;;;;;27.48;9.00;;;2.80;99.90;;;;;;4744940;30;20051;-76
2022/11/20 02:27:42;;;;;;;32.40;9.82;;;2.50;99.90;;;;;;4759713;30;20048;-76
2022/11/20 02:30:10;;;;;;;31.77;10.60;;;2.70;99.90;;;;;;4758155;30;20040;-75
2022/11/20 02:32:38;;;;;;;27.13;9.60;;;2.70;99.90;;;;;;4758716;30;20048;-75
2022/11/20 02:35:17;;;;;;;30.45;10.15;;;2.80;99.90;;;;;;4759635;30;20051;-75
2022/11/20 02:37:47;;;;;;;32.30;11.02;;;2.80;99.90;;;;;;4756660;30;20517;-76
2022/11/20 02:40:14;;;;;;;26.05;9.30;;;2.90;99.90;;;;;;4746004;30;20091;-76
2022/11/20 02:42:41;;;;;;;31.58;9.75;;;2.70;99.90;;;;;;4759935;30;20069;-76
2022/11/20 02:45:09;;;;;;;29.60;10.50;;;2.70;99.90;;;;;;4743818;30;20049;-76
2022/11/20 02:47:36;;;;;;;27.08;9.52;;;2.70;99.90;;;;;;4759332;30;20052;-76
2022/11/20 02:50:04;;;;;;;34.00;10.00;;;2.90;99.90;;;;;;4750590;30;20059;-75
2022/11/20 02:52:31;;;;;;;34.10;9.98;;;2.80;99.90;;;;;;4747616;30;20083;-76
2022/11/20 02:54:59;;;;;;;28.25;10.15;;;2.80;99.90;;;;;;4745020;30;20052;-76
2022/11/20 02:57:26;;;;;;;41.20;12.45;;;3.30;99.90;;;;;;4757874;30;20121;-76
2022/11/20 02:59:53;;;;;;;34.78;10.32;;;2.80;99.90;;;;;;4753401;30;20060;-76
2022/11/20 03:02:20;;;;;;;28.52;10.55;;;2.80;99.90;;;;;;4747584;30;20051;-76
2022/11/20 03:04:47;;;;;;;36.30;12.18;;;2.80;99.90;;;;;;4747040;30;20669;-76
2022/11/20 03:07:14;;;;;;;32.90;12.15;;;2.90;99.90;;;;;;4758395;30;20580;-76
2022/11/20 03:09:41;;;;;;;34.33;11.65;;;2.90;99.90;;;;;;4746974;30;21376;-75
2022/11/20 03:12:08;;;;;;;37.47;11.38;;;2.90;99.90;;;;;;4748970;30;20058;-76
2022/11/20 03:14:35;;;;;;;31.67;10.00;;;2.90;99.90;;;;;;4748639;30;20512;-76
2022/11/20 03:17:02;;;;;;;37.03;11.77;;;2.80;99.90;;;;;;4750708;30;20113;-76
2022/11/20 03:19:29;;;;;;;36.47;11.63;;;2.80;99.90;;;;;;4749157;30;20524;-76
2022/11/20 03:21:56;;;;;;;35.78;11.75;;;3.00;99.90;;;;;;4763514;30;20044;-76
2022/11/20 03:24:23;;;;;;;36.03;12.10;;;2.80;99.90;;;;;;4753646;30;20052;-76
2022/11/20 03:26:50;;;;;;;38.13;12.77;;;2.80;99.90;;;;;;4752435;30;20040;-76
2022/11/20 03:29:17;;;;;;;36.83;12.00;;;2.90;99.90;;;;;;4766158;30;20449;-75
2022/11/20 03:31:44;;;;;;;35.55;11.65;;;2.90;99.90;;;;;;4747061;30;20052;-75
2022/11/20 03:34:12;;;;;;;36.78;11.52;;;3.00;99.90;;;;;;4748992;30;20139;-75
2022/11/20 03:36:41;;;;;;;35.42;12.63;;;3.00;99.90;;;;;;4761237;30;20043;-75
2022/11/20 03:39:09;;;;;;;35.78;11.85;;;3.00;99.90;;;;;;4758063;30;20491;-75
2022/11/20 03:41:38;;;;;;;35.08;11.02;;;3.30;99.90;;;;;;4761648;30;20721;-75
2022/11/20 03:44:07;;;;;;;37.88;11.93;;;3.00;99.90;;;;;;4762023;30;20067;-76
2022/11/20 03:46:34;;;;;;;34.20;10.80;;;3.00;99.90;;;;;;4747946;30;20051;-76
2022/11/20 03:49:01;;;;;;;34.65;11.27;;;3.00;99.90;;;;;;4762607;30;20131;-76
2022/11/20 03:51:34;;;;;;;36.30;11.80;;;3.00;99.90;;;;;;4757530;30;20051;-76
2022/11/20 03:54:06;;;;;;;38.53;11.50;;;3.00;99.90;;;;;;4751879;30;20048;-76
2022/11/20 03:56:36;;;;;;;36.13;11.27;;;3.00;99.90;;;;;;4761912;30;20508;-76
2022/11/20 03:59:04;;;;;;;31.15;11.85;;;3.00;99.90;;;;;;4742860;30;20101;-76
2022/11/20 04:01:33;;;;;;;38.35;12.40;;;3.00;99.90;;;;;;4748897;30;20064;-76
2022/11/20 04:04:01;;;;;;;35.80;11.57;;;3.10;99.90;;;;;;4763084;30;20889;-76
2022/11/20 04:06:30;;;;;;;35.45;11.73;;;2.80;99.90;;;;;;4751570;30;20104;-76
2022/11/20 04:08:58;;;;;;;32.85;11.75;;;2.80;99.90;;;;;;4746770;30;20056;-76
2022/11/20 04:11:28;;;;;;;37.33;11.15;;;2.90;99.90;;;;;;4760481;30;20082;-76
2022/11/20 04:13:57;;;;;;;35.25;11.48;;;2.80;99.90;;;;;;4759848;30;20114;-76
2022/11/20 04:16:26;;;;;;;32.75;11.10;;;2.90;99.90;;;;;;4749858;30;20056;-76
2022/11/20 04:18:54;;;;;;;32.90;11.63;;;2.90;99.90;;;;;;4766824;30;20538;-76
2022/11/20 04:21:22;;;;;;;33.63;10.35;;;2.80;99.90;;;;;;4759957;30;20072;-76
2022/11/20 04:23:50;;;;;;;33.47;10.45;;;2.90;99.90;;;;;;4737544;30;20539;-76
2022/11/20 04:26:17;;;;;;;31.77;11.15;;;2.80;99.90;;;;;;4755777;30;20105;-76
2022/11/20 04:28:44;;;;;;;35.25;11.27;;;2.80;99.90;;;;;;4748688;30;20504;-76
2022/11/20 04:31:18;;;;;;;34.75;12.30;;;2.80;99.90;;;;;;4749660;30;20042;-76
2022/11/20 04:33:45;;;;;;;;;;;2.80;99.90;;;;;;4762917;30;20047;-76
2022/11/20 04:36:16;;;;;;;32.72;10.18;;;2.90;99.90;;;;;;4761536;30;19936;-76
2022/11/20 04:38:44;;;;;;;37.65;12.00;;;3.00;99.90;;;;;;4750108;30;20524;-76
2022/11/20 04:41:16;;;;;;;30.20;11.27;;;2.80;99.90;;;;;;4747454;30;20162;-76
2022/11/20 04:43:48;;;;;;;34.78;10.40;;;2.70;99.90;;;;;;4749439;30;20147;-76
2022/11/20 04:46:16;;;;;;;29.05;10.18;;;2.70;99.90;;;;;;4765744;30;20049;-76
2022/11/20 04:48:43;;;;;;;29.63;9.82;;;3.10;99.90;;;;;;4758013;30;20082;-76
2022/11/20 04:51:11;;;;;;;29.95;10.18;;;2.80;99.90;;;;;;4765922;30;20046;-76
2022/11/20 04:53:38;;;;;;;37.92;11.90;;;2.60;99.90;;;;;;4766308;30;20126;-76
2022/11/20 04:56:07;;;;;;;29.90;10.95;;;2.60;99.90;;;;;;4767549;30;20044;-76
2022/11/20 04:58:34;;;;;;;33.20;11.63;;;2.60;99.90;;;;;;4747159;30;20599;-76
2022/11/20 05:01:10;;;;;;;35.63;11.85;;;2.50;99.90;;;;;;4765822;30;20039;-76
2022/11/20 05:03:39;;;;;;;33.30;10.85;;;2.60;99.90;;;;;;4743344;30;20101;-76
2022/11/20 05:06:10;;;;;;;29.40;10.93;;;2.60;99.90;;;;;;4761338;30;20054;-76
2022/11/20 05:08:37;;;;;;;33.00;12.23;;;2.60;99.90;;;;;;4761392;30;20075;-76
2022/11/20 05:11:06;;;;;;;32.55;11.02;;;2.70;99.90;;;;;;4760493;30;20067;-75
2022/11/20 05:13:34;;;;;;;32.15;10.57;;;2.60;99.90;;;;;;4747710;30;20063;-76
2022/11/20 05:16:08;;;;;;;36.35;12.77;;;2.60;99.90;;;;;;4760418;30;20048;-76
2022/11/20 05:18:37;;;;;;;37.33;11.85;;;2.60;99.90;;;;;;4760060;30;20382;-76
2022/11/20 05:21:04;;;;;;;33.78;12.43;;;3.00;99.90;;;;;;4747522;30;20102;-76
2022/11/20 05:23:32;;;;;;;32.05;11.73;;;2.50;99.90;;;;;;4761635;30;20051;-76
2022/11/20 05:26:00;;;;;;;26.85;10.10;;;2.50;99.90;;;;;;4747278;30;20036;-76
2022/11/20 05:28:29;;;;;;;33.40;10.63;;;2.60;99.90;;;;;;4754369;30;20519;-76
2022/11/20 05:30:56;;;;;;;31.23;11.02;;;2.60;99.90;;;;;;4750290;30;20113;-76
2022/11/20 05:33:23;;;;;;;31.85;10.93;;;2.60;99.90;;;;;;4761393;30;20062;-76
2022/11/20 05:35:50;;;;;;;33.20;12.38;;;3.00;99.90;;;;;;4747505;30;20480;-75
2022/11/20 05:38:17;;;;;;;34.20;11.60;;;2.60;99.90;;;;;;4763861;30;20051;-76
2022/11/20 05:40:44;;;;;;;33.78;12.90;;;3.00;99.90;;;;;;4738922;30;20136;-75
2022/11/20 05:43:11;;;;;;;47.03;16.45;;;2.70;99.90;;;;;;4758966;30;20044;-75
2022/11/20 05:45:37;;;;;;;40.83;14.38;;;2.60;99.90;;;;;;4749325;30;20047;-76
2022/11/20 05:48:05;;;;;;;72.65;21.88;;;2.70;99.90;;;;;;4746144;30;20055;-76
2022/11/20 05:50:31;;;;;;;64.20;20.77;;;2.70;99.90;;;;;;4747994;30;20048;-76
2022/11/20 05:52:59;;;;;;;43.42;13.98;;;2.50;99.90;;;;;;4751854;30;20099;-76
2022/11/20 05:55:27;;;;;;;38.38;11.70;;;2.60;99.90;;;;;;4748443;30;20113;-76
2022/11/20 05:57:54;;;;;;;37.30;12.98;;;2.50;99.90;;;;;;4758177;30;20063;-76
2022/11/20 06:00:22;;;;;;;38.10;13.07;;;2.50;99.90;;;;;;4749196;30;20680;-76
2022/11/20 06:02:49;;;;;;;36.10;12.98;;;2.50;99.90;;;;;;4755337;30;20044;-76
2022/11/20 06:05:16;;;;;;;41.10;14.55;;;3.20;99.90;;;;;;4749742;30;20044;-76
2022/11/20 06:07:43;;;;;;;29.65;10.75;;;3.00;99.90;;;;;;4761013;30;20047;-76
2022/11/20 06:10:11;;;;;;;35.75;11.88;;;2.60;99.90;;;;;;4762972;30;20098;-76
2022/11/20 06:12:38;;;;;;;36.88;13.00;;;2.60;99.90;;;;;;4755512;30;20052;-76
2022/11/20 06:15:06;;;;;;;38.58;15.30;;;2.70;99.90;;;;;;4752285;30;20052;-76
2022/11/20 06:17:33;;;;;;;38.72;15.05;;;2.50;99.90;;;;;;4747317;30;20509;-76
2022/11/20 06:20:00;;;;;;;36.15;12.60;;;2.50;99.90;;;;;;4752867;30;20056;-76
2022/11/20 06:22:27;;;;;;;38.78;12.30;;;3.20;99.90;;;;;;4750350;30;20082;-75
2022/11/20 06:24:54;;;;;;;40.33;14.20;;;2.60;99.90;;;;;;4762121;30;20757;-76
2022/11/20 06:27:21;;;;;;;36.05;15.07;;;2.50;99.90;;;;;;4748515;30;20115;-76
2022/11/20 06:29:48;;;;;;;36.30;13.70;;;2.40;99.90;;;;;;4737488;30;20052;-76
2022/11/20 06:32:15;;;;;;;46.97;13.93;;;2.80;99.90;;;;;;4756247;30;20060;-76
2022/11/20 06:34:42;;;;;;;40.38;12.45;;;2.60;99.90;;;;;;4750974;30;20134;-76
2022/11/20 06:37:09;;;;;;;31.77;12.68;;;2.50;99.90;;;;;;4759386;30;20056;-75
2022/11/20 06:39:36;;;;;;;36.88;13.18;;;2.60;99.90;;;;;;4747014;30;20958;-76
2022/11/20 06:42:03;;;;;;;35.13;12.60;;;2.70;99.90;;;;;;4761916;30;20048;-76
2022/11/20 06:44:30;;;;;;;33.83;12.77;;;2.60;99.90;;;;;;4759638;30;20052;-76
2022/11/20 06:46:57;;;;;;;34.15;13.05;;;3.20;99.90;;;;;;4757208;30;20055;-76
2022/11/20 06:49:25;;;;;;;33.20;12.93;;;2.70;99.90;;;;;;4742665;30;20404;-76
2022/11/20 06:51:52;;;;;;;37.10;14.80;;;2.80;99.90;;;;;;4758460;30;20051;-76
2022/11/20 06:54:19;;;;;;;38.78;14.07;;;2.80;99.90;;;;;;4761253;29;20052;-76
2022/11/20 06:56:49;;;;;;;41.20;13.98;;;2.80;99.90;;;;;;4753723;30;20116;-76
2022/11/20 06:59:16;;;;;;;39.53;13.80;;;2.80;99.90;;;;;;4748851;30;20117;-76
2022/11/20 07:01:43;;;;;;;34.08;11.98;;;2.70;99.90;;;;;;4756194;30;20119;-76
2022/11/20 07:04:10;;;;;;;41.05;13.75;;;3.00;99.90;;;;;;4754449;30;20539;-76
2022/11/20 07:06:37;;;;;;;39.80;14.30;;;2.80;99.90;;;;;;4758322;30;20068;-76
2022/11/20 07:09:04;;;;;;;37.63;13.88;;;3.20;99.90;;;;;;4746209;30;20056;-75
2022/11/20 07:11:47;;;;;;;41.15;13.85;;;2.80;99.90;;;;;;4764835;30;20069;-76
2022/11/20 07:14:14;;;;;;;42.53;15.02;;;2.80;99.90;;;;;;4767707;30;20081;-76
2022/11/20 07:16:41;;;;;;;37.60;13.95;;;2.90;99.90;;;;;;4735021;30;20105;-76
2022/11/20 07:19:08;;;;;;;35.58;13.73;;;2.80;99.90;;;;;;4757728;30;20049;-76
2022/11/20 07:21:35;;;;;;;38.63;15.25;;;2.80;99.90;;;;;;4752962;30;20051;-76
2022/11/20 07:24:02;;;;;;;36.33;13.65;;;3.40;99.90;;;;;;4752796;30;20044;-76
2022/11/20 07:26:29;;;;;;;36.88;13.82;;;2.90;99.90;;;;;;4752058;30;20055;-76
2022/11/20 07:28:56;;;;;;;42.17;13.35;;;3.30;99.90;;;;;;4750598;30;20048;-75
2022/11/20 07:31:23;;;;;;;40.72;15.73;;;3.00;99.90;;;;;;4753945;30;20043;-76
2022/11/20 07:33:50;;;;;;;42.35;13.52;;;3.00;99.90;;;;;;4767048;30;20089;-76
2022/11/20 07:36:17;;;;;;;44.72;15.93;;;3.10;99.90;;;;;;4760565;30;20504;-76
2022/11/20 07:38:44;;;;;;;41.90;13.68;;;3.10;99.90;;;;;;4763277;30;20059;-76
2022/11/20 07:41:11;;;;;;;40.28;13.70;;;3.10;99.90;;;;;;4752462;30;20060;-76
2022/11/20 07:43:38;;;;;;;49.08;16.30;;;3.20;99.90;;;;;;4763382;30;20101;-76
2022/11/20 07:46:07;;;;;;;35.35;14.00;;;3.20;99.90;;;;;;4757714;30;20036;-76
2022/11/20 07:48:34;;;;;;;38.90;12.70;;;3.10;99.90;;;;;;4746678;30;20105;-76
2022/11/20 07:51:01;;;;;;;41.92;15.43;;;3.10;99.90;;;;;;4765455;30;20101;-76
2022/11/20 07:53:28;;;;;;;38.58;14.85;;;3.20;99.90;;;;;;4753418;30;20063;-76
2022/11/20 07:55:58;;;;;;;37.55;12.82;;;3.20;99.90;;;;;;4757122;30;20412;-76
2022/11/20 07:58:26;;;;;;;38.65;13.65;;;3.20;99.90;;;;;;4753462;30;20075;-77
2022/11/20 08:00:53;;;;;;;38.05;13.77;;;3.30;99.90;;;;;;4758693;30;20451;-77
2022/11/20 08:03:20;;;;;;;33.90;12.18;;;3.20;99.90;;;;;;4754530;30;20101;-77
2022/11/20 08:05:54;;;;;;;40.80;14.23;;;3.50;99.90;;;;;;4767552;30;20078;-77
2022/11/20 08:08:23;;;;;;;37.53;12.95;;;3.30;99.90;;;;;;4772674;30;20071;-77
2022/11/20 08:10:50;;;;;;;29.90;12.05;;;3.00;99.90;;;;;;4759118;30;20044;-77
2022/11/20 08:18:45;;;;;;;30.70;12.07;;;3.50;99.90;;;;;;4794602;29;20058;-78
2022/11/20 08:21:14;;;;;;;42.28;14.43;;;3.40;99.90;;;;;;4776421;30;20052;-78
2022/11/20 08:23:41;;;;;;;35.05;12.40;;;3.50;99.90;;;;;;4785481;29;20058;-78
2022/11/20 08:26:09;;;;;;;32.90;11.38;;;3.50;99.90;;;;;;4765371;29;20093;-79
2022/11/20 08:28:36;;;;;;;34.20;11.60;;;3.70;99.90;;;;;;4788774;29;20047;-78
2022/11/20 08:31:04;;;;;;;37.47;13.75;;;3.70;99.90;;;;;;4781416;29;20086;-78
2022/11/20 08:33:32;;;;;;;39.97;14.80;;;3.70;99.90;;;;;;4780901;29;20048;-78
2022/11/20 08:36:01;;;;;;;37.08;13.60;;;3.20;99.90;;;;;;4775414;30;20521;-78
2022/11/20 08:38:29;;;;;;;35.00;12.73;;;4.00;99.90;;;;;;4780110;29;20047;-78
2022/11/20 08:43:47;;;;;;;35.00;13.18;;;3.80;99.90;;;;;;4775163;29;20736;-78
2022/11/20 08:46:14;;;;;;;33.20;12.10;;;3.80;99.90;;;;;;4767139;29;20043;-78
2022/11/20 08:48:42;;;;;;;36.75;13.60;;;3.60;99.90;;;;;;4776384;29;20139;-78
2022/11/20 08:51:10;;;;;;;33.60;13.50;;;3.20;99.90;;;;;;4782739;29;20380;-78
2022/11/20 08:53:39;;;;;;;35.72;13.07;;;4.00;99.90;;;;;;4771694;30;20487;-78
2022/11/20 08:56:06;;;;;;;46.95;18.83;;;4.00;99.90;;;;;;4768907;30;20047;-78
2022/11/20 08:58:34;;;;;;;33.53;12.55;;;4.10;99.90;;;;;;4757495;30;20047;-78
2022/11/20 09:01:23;;;;;;;38.22;13.68;;;4.00;99.90;;;;;;4771488;30;20106;-79
2022/11/20 09:03:50;;;;;;;32.00;11.05;;;4.10;99.90;;;;;;4768561;30;20871;-78
2022/11/20 09:06:18;;;;;;;32.38;11.95;;;4.10;99.90;;;;;;4773639;30;20069;-78
2022/11/20 09:08:47;;;;;;;29.77;12.23;;;4.20;99.90;;;;;;4776397;30;20048;-78
2022/11/20 09:11:14;;;;;;;32.85;12.48;;;4.20;99.90;;;;;;4783911;29;20050;-78
2022/11/20 09:13:41;;;;;;;29.95;12.15;;;4.20;99.90;;;;;;4759342;30;20055;-78
2022/11/20 09:16:09;;;;;;;27.85;10.52;;;4.30;99.90;;;;;;4785365;29;20078;-78
2022/11/20 09:18:38;;;;;;;31.98;12.30;;;4.30;99.90;;;;;;4754566;30;20055;-78
2022/11/20 09:21:10;;;;;;;27.38;10.52;;;5.10;99.90;;;;;;4766910;30;20048;-78
2022/11/20 09:23:38;;;;;;;39.17;14.80;;;4.30;99.90;;;;;;4741115;30;20048;-78
2022/11/20 09:26:07;;;;;;;34.15;13.65;;;3.60;99.90;;;;;;4736358;30;20052;-78
2022/11/20 09:28:35;;;;;;;40.67;15.13;;;4.30;99.90;;;;;;4760807;30;20093;-78
2022/11/20 09:31:17;;;;;;;33.47;14.15;;;4.60;99.90;;;;;;4755798;30;20122;-78
2022/11/20 09:33:46;;;;;;;38.50;14.32;;;4.20;99.90;;;;;;4762078;30;20059;-78
2022/11/20 09:36:14;;;;;;;41.85;16.75;;;4.20;99.90;;;;;;4759660;30;20048;-78
2022/11/20 09:39:01;;;;;;;36.45;15.18;;;4.40;99.90;;;;;;2991525;24;20246;-86
2022/11/20 09:41:53;;;;;;;38.83;16.75;;;4.40;99.90;;;;;;4745866;30;20040;-77
2022/11/20 09:44:48;;;;;;;47.00;17.95;;;4.30;99.90;;;;;;4916100;24;20075;-78
2022/11/20 09:50:26;;;;;;;35.35;13.88;;;5.20;99.90;;;;;;4737964;30;20075;-77
2022/11/20 09:53:11;;;;;;;44.25;15.02;;;4.40;99.90;;;;;;4723651;30;20075;-77
2022/11/20 09:55:39;;;;;;;60.75;26.38;;;4.60;99.90;;;;;;4721205;30;20129;-77
2022/11/20 09:58:12;;;;;;;42.67;17.10;;;4.50;99.90;;;;;;4733723;30;20055;-77
2022/11/20 10:00:40;;;;;;;37.10;15.90;;;4.60;99.90;;;;;;4724445;30;20052;-77
2022/11/20 10:03:46;;;;;;;37.90;16.25;;;4.60;99.90;;;;;;4734638;30;20041;-78
2022/11/20 10:06:34;;;;;;;48.88;20.55;;;4.70;99.90;;;;;;4717380;30;20079;-77
2022/11/20 10:09:21;;;;;;;40.83;16.23;;;4.70;99.90;;;;;;4701395;30;20049;-77
2022/11/20 10:12:18;;;;;;;48.47;20.13;;;4.70;99.90;;;;;;4723721;30;20540;-77
2022/11/20 10:15:26;;;;;;;49.08;22.60;;;4.80;99.90;;;;;;4732014;30;20083;-77
2022/11/20 10:18:09;;;;;;;44.67;20.42;;;4.90;99.90;;;;;;4719976;30;20053;-77
2022/11/20 10:21:12;;;;;;;41.47;16.08;;;4.90;99.90;;;;;;4723922;30;20155;-77
2022/11/20 10:23:59;;;;;;;36.97;13.50;;;4.10;99.90;;;;;;4694149;30;20077;-77
2022/11/20 10:26:32;;;;;;;34.38;13.23;;;4.80;99.90;;;;;;4683770;30;20102;-77
2022/11/20 10:29:11;;;;;;;;;;;5.20;99.90;;;;;;4682346;30;20482;-77
2022/11/20 10:31:42;;;;;;;85.55;34.53;;;5.20;99.90;;;;;;4665001;30;20522;-77
2022/11/20 10:34:33;;;;;;;765.35;240.93;;;4.10;99.90;;;;;;4684698;30;20093;-77
2022/11/20 10:37:25;;;;;;;44.03;17.08;;;5.10;99.90;;;;;;4695326;30;20073;-77
2022/11/20 10:40:18;;;;;;;46.72;21.50;;;5.20;99.90;;;;;;4652855;30;20054;-77
2022/11/20 10:43:15;;;;;;;38.35;15.50;;;5.20;99.90;;;;;;4636905;30;20658;-77
2022/11/20 10:46:06;;;;;;;37.97;15.93;;;5.30;99.90;;;;;;4636872;30;20067;-78
2022/11/20 10:48:36;;;;;;;35.63;16.27;;;5.30;99.90;;;;;;4653211;30;20173;-77
2022/11/20 10:51:56;;;;;;;34.80;14.82;;;5.40;99.90;;;;;;4651604;30;20155;-77
2022/11/20 10:54:45;;;;;;;36.90;14.95;;;5.50;99.90;;;;;;4762693;24;20051;-77
2022/11/20 10:57:48;;;;;;;31.80;14.10;;;5.40;99.90;;;;;;4769965;29;20082;-77
2022/11/20 11:00:18;;;;;;;37.03;13.27;;;5.50;99.90;;;;;;4772684;30;20119;-77
2022/11/20 11:02:56;;;;;;;31.35;13.18;;;5.50;99.90;;;;;;4773143;29;20077;-77
2022/11/20 11:05:48;;;;;;;28.63;12.02;;;5.50;99.90;;;;;;4767584;30;20052;-77
2022/11/20 11:08:22;;;;;;;31.52;13.20;;;5.50;99.90;;;;;;4753779;30;20581;-77
2022/11/20 11:14:20;;;;;;;40.03;15.30;;;5.60;99.90;;;;;;4726012;30;20057;-77
2022/11/20 11:16:56;;;;;;;37.40;15.27;;;5.60;99.90;;;;;;4730221;30;20048;-77
2022/11/20 11:19:24;;;;;;;34.60;13.68;;;5.60;99.90;;;;;;4747431;30;20124;-77
2022/11/20 11:22:17;;;;;;;45.33;22.80;;;5.60;99.90;;;;;;4729416;30;20055;-77
2022/11/20 11:24:54;;;;;;;40.28;15.82;;;5.60;99.90;;;;;;4711763;30;20099;-77
2022/11/20 11:27:22;;;;;;;39.22;15.05;;;5.10;99.90;;;;;;4698938;30;20079;-77
2022/11/20 11:30:03;;;;;;;46.03;18.23;;;5.70;99.90;;;;;;4719634;30;20095;-77
2022/11/20 11:32:32;;;;;;;40.97;13.90;;;5.70;99.90;;;;;;4724109;30;20084;-77
2022/11/20 11:35:18;;;;;;;43.92;15.68;;;5.80;99.90;;;;;;5081278;24;20066;-78
2022/11/20 11:37:48;;;;;;;39.35;15.32;;;5.80;99.90;;;;;;4759628;29;20040;-78
2022/11/20 11:40:17;;;;;;;31.08;12.27;;;5.80;99.90;;;;;;4771592;30;20055;-78
2022/11/20 11:43:02;;;;;;;33.38;16.08;;;5.80;99.90;;;;;;4777823;30;20039;-78
2022/11/20 11:45:30;;;;;;;40.00;15.65;;;6.00;99.90;;;;;;4765304;29;20047;-78
2022/11/20 11:48:05;;;;;;;43.53;20.25;;;5.80;99.90;;;;;;4774698;30;20052;-78
2022/11/20 11:50:35;;;;;;;38.75;16.88;;;6.00;99.90;;;;;;4784728;30;20110;-78
2022/11/20 11:53:14;;;;;;;48.63;23.52;;;6.00;99.90;;;;;;4785721;30;20130;-78
2022/11/20 11:55:48;;;;;;;46.33;21.35;;;6.10;99.90;;;;;;4776722;29;20115;-78
2022/11/20 12:12:18;;;;;;;32.50;13.88;;;6.30;99.90;;;;;;4751364;30;20061;-78
2022/11/20 12:14:49;;;;;;;74.85;31.60;;;6.20;99.90;;;;;;4738098;30;20421;-78
2022/11/20 12:17:17;;;;;;;33.97;13.25;;;6.30;99.90;;;;;;4752144;30;20044;-78
2022/11/20 12:19:45;;;;;;;26.55;12.50;;;6.30;99.90;;;;;;4749015;30;20045;-79
2022/11/20 12:22:38;;;;;;;28.48;11.30;;;6.10;99.90;;;;;;4760485;30;20046;-78
2022/11/20 12:25:38;;;;;;;30.55;13.20;;;6.40;99.90;;;;;;4757293;30;20036;-78
2022/11/20 12:28:29;;;;;;;32.33;13.77;;;6.40;99.90;;;;;;4765738;30;20094;-79
2022/11/20 12:31:29;;;;;;;34.38;15.65;;;6.40;99.90;;;;;;4763062;30;20055;-78
2022/11/20 12:34:26;;;;;;;29.63;12.75;;;6.40;99.90;;;;;;4762661;30;20108;-78
2022/11/20 12:37:25;;;;;;;34.28;15.68;;;6.10;99.90;;;;;;4750735;30;20052;-78
2022/11/20 12:40:15;;;;;;;29.98;13.57;;;6.40;99.90;;;;;;4765924;30;20096;-78
2022/11/20 12:46:31;;;;;;;31.17;13.52;;;6.40;99.90;;;;;;4777453;30;20035;-78
2022/11/20 12:49:24;;;;;;;30.65;13.23;;;5.30;99.90;;;;;;4762542;30;20062;-78
2022/11/20 12:51:58;;;;;;;27.48;12.07;;;6.10;99.90;;;;;;4761497;30;20065;-78
2022/11/20 12:54:50;;;;;;;29.77;12.55;;;6.40;99.90;;;;;;4744775;30;20056;-78
2022/11/20 12:58:05;;;;;;;125.60;42.38;;;6.20;99.90;;;;;;4742520;30;20072;-78
2022/11/20 13:00:35;;;;;;;28.40;12.13;;;7.10;99.90;;;;;;4729934;30;20048;-78
2022/11/20 13:03:07;;;;;;;31.55;13.05;;;5.60;99.90;;;;;;4727265;30;20146;-78
2022/11/20 13:06:06;;;;;;;36.80;15.10;;;6.40;99.90;;;;;;4741553;30;20040;-78
2022/11/20 13:08:38;;;;;;;29.50;12.43;;;6.40;99.90;;;;;;4733538;30;20079;-78
2022/11/20 13:11:39;;;;;;;24.40;11.20;;;6.50;99.90;;;;;;4708035;30;20076;-78
2022/11/20 13:14:37;;;;;;;29.52;14.10;;;6.50;99.90;;;;;;4728646;30;20052;-78
2022/11/20 13:17:16;;;;;;;28.27;12.15;;;6.50;99.90;;;;;;4727054;30;20092;-78
2022/11/20 13:19:52;;;;;;;28.55;14.38;;;5.80;99.90;;;;;;4730721;30;20057;-78
2022/11/20 13:22:28;;;;;;;28.02;11.50;;;6.50;99.90;;;;;;4729162;30;20073;-78
2022/11/20 13:24:57;;;;;;;28.40;12.25;;;6.50;99.90;;;;;;4709352;30;20049;-78
2022/11/20 13:27:26;;;;;;;29.17;12.98;;;6.00;99.90;;;;;;4723892;30;20104;-78
2022/11/20 13:30:18;;;;;;;33.60;14.50;;;6.40;99.90;;;;;;4731295;30;20060;-78
2022/11/20 13:33:07;;;;;;;38.22;16.25;;;6.10;99.90;;;;;;4757357;30;20040;-78
2022/11/20 13:35:42;;;;;;;52.70;19.80;;;6.40;99.90;;;;;;4765596;30;20095;-79
2022/11/20 13:38:14;;;;;;;53.00;23.20;;;6.40;99.90;;;;;;4751015;30;20056;-79
2022/11/20 13:41:27;;;;;;;37.35;16.67;;;6.40;99.90;;;;;;4770372;30;20051;-78